createdAt,value
2022-08-28T00:01:42.666Z,29.83
2022-08-28T00:04:08.911Z,4.93
2022-08-28T00:06:35.268Z,5.03
2022-08-28T00:09:01.603Z,5.07
2022-08-28T00:11:27.835Z,5.55
2022-08-28T00:13:54.109Z,5.03
2022-08-28T00:16:23.462Z,5.15
2022-08-28T00:18:53.286Z,5.57
2022-08-28T00:21:19.588Z,5.47
2022-08-28T00:23:45.835Z,5.88
2022-08-28T00:26:32.183Z,4.68
2022-08-28T00:28:58.466Z,4.70
2022-08-28T00:31:24.825Z,4.57
2022-08-28T00:33:51.096Z,3.72
2022-08-28T00:36:17.575Z,4.25
2022-08-28T00:38:43.825Z,4.20
2022-08-28T00:41:11.006Z,4.18
2022-08-28T00:43:40.019Z,4.57
2022-08-28T00:46:09.080Z,4.13
2022-08-28T00:48:35.686Z,5.05
2022-08-28T00:51:21.340Z,4.32
2022-08-28T00:53:48.028Z,4.25
2022-08-28T00:56:15.832Z,4.40
2022-08-28T00:58:43.226Z,4.50
2022-08-28T01:01:09.713Z,4.00
2022-08-28T01:03:36.535Z,3.83
2022-08-28T01:06:02.979Z,4.47
2022-08-28T01:08:33.759Z,3.80
2022-08-28T01:11:03.504Z,3.57
2022-08-28T01:13:30.419Z,3.50
2022-08-28T01:15:58.064Z,3.53
2022-08-28T01:18:25.055Z,3.15
2022-08-28T01:21:09.713Z,3.83
2022-08-28T01:23:53.355Z,3.47
2022-08-28T01:26:20.011Z,3.50
2022-08-28T01:28:47.184Z,3.70
2022-08-28T01:31:14.455Z,3.25
2022-08-28T01:33:42.593Z,3.10
2022-08-28T01:36:10.383Z,3.22
2022-08-28T01:38:37.467Z,3.20
2022-08-28T01:41:03.856Z,3.13
2022-08-28T01:43:31.294Z,3.50
2022-08-28T01:46:02.111Z,3.00
2022-08-28T01:48:29.335Z,3.40
2022-08-28T01:50:55.983Z,2.80
2022-08-28T01:53:25.003Z,3.20
2022-08-28T01:55:52.704Z,2.97
2022-08-28T01:58:19.130Z,2.78
2022-08-28T02:00:45.611Z,2.78
2022-08-28T02:03:12.768Z,4.10
2022-08-28T02:05:39.910Z,2.78
2022-08-28T02:08:06.805Z,3.08
2022-08-28T02:10:34.052Z,2.75
2022-08-28T02:13:00.339Z,3.05
2022-08-28T02:15:27.561Z,3.13
2022-08-28T02:17:54.105Z,2.83
2022-08-28T02:20:20.449Z,3.00
2022-08-28T02:22:46.738Z,3.05
2022-08-28T02:25:13.820Z,2.75
2022-08-28T02:27:40.546Z,3.35
2022-08-28T02:30:08.358Z,2.67
2022-08-28T02:32:34.823Z,3.15
2022-08-28T02:35:01.224Z,2.78
2022-08-28T02:37:27.467Z,2.80
2022-08-28T02:39:57.193Z,2.70
2022-08-28T02:42:23.588Z,2.72
2022-08-28T02:44:50.059Z,2.72
2022-08-28T02:47:16.333Z,3.00
2022-08-28T02:49:42.595Z,3.17
2022-08-28T02:52:08.882Z,2.80
2022-08-28T02:54:35.527Z,3.22
2022-08-28T02:57:02.261Z,3.03
2022-08-28T02:59:29.454Z,2.83
2022-08-28T03:01:55.759Z,3.20
2022-08-28T03:04:22.010Z,2.97
2022-08-28T03:06:49.735Z,2.80
2022-08-28T03:09:16.000Z,2.75
2022-08-28T03:11:42.255Z,3.58
2022-08-28T03:14:08.565Z,3.15
2022-08-28T03:16:34.909Z,2.97
2022-08-28T03:19:01.199Z,3.38
2022-08-28T03:21:27.471Z,3.17
2022-08-28T03:23:53.728Z,3.30
2022-08-28T03:26:20.536Z,3.10
2022-08-28T03:28:48.278Z,3.20
2022-08-28T03:31:17.702Z,3.10
2022-08-28T03:33:44.520Z,2.83
2022-08-28T03:36:12.058Z,3.10
2022-08-28T03:38:38.332Z,2.92
2022-08-28T03:41:09.488Z,3.05
2022-08-28T03:43:35.786Z,3.33
2022-08-28T03:46:02.769Z,3.33
2022-08-28T03:48:31.164Z,3.35
2022-08-28T03:50:58.040Z,3.00
2022-08-28T03:53:25.795Z,3.20
2022-08-28T03:55:52.335Z,3.13
2022-08-28T03:58:19.344Z,3.03
2022-08-28T04:00:46.607Z,3.10
2022-08-28T04:03:13.466Z,3.22
2022-08-28T04:05:40.775Z,3.10
2022-08-28T04:08:07.726Z,3.03
2022-08-28T04:10:34.605Z,2.90
2022-08-28T04:13:00.855Z,2.95
2022-08-28T04:15:27.835Z,3.10
2022-08-28T04:17:54.411Z,2.83
2022-08-28T04:20:21.003Z,2.95
2022-08-28T04:22:55.244Z,2.90
2022-08-28T04:25:21.954Z,3.20
2022-08-28T04:27:48.696Z,2.85
2022-08-28T04:30:15.023Z,3.13
2022-08-28T04:32:41.309Z,2.83
2022-08-28T04:35:09.946Z,3.00
2022-08-28T04:37:36.517Z,2.88
2022-08-28T18:46:10.454Z,2.15
2022-08-28T18:48:37.391Z,1.80
2022-08-28T18:51:05.813Z,1.50
2022-08-28T18:53:32.079Z,2.00
2022-08-28T18:56:00.273Z,2.13
2022-08-28T18:58:29.009Z,1.92
2022-08-28T19:00:56.676Z,1.80
2022-08-28T19:03:22.935Z,1.85
2022-08-28T19:05:49.360Z,1.63
2022-08-28T19:08:15.817Z,1.75
2022-08-28T19:10:42.221Z,2.15
2022-08-28T19:13:08.585Z,1.95
2022-08-28T19:15:35.807Z,2.30
2022-08-28T19:18:02.699Z,1.88
2022-08-28T19:20:29.929Z,2.05
2022-08-28T19:22:56.683Z,1.65
2022-08-28T19:25:28.170Z,2.58
2022-08-28T19:27:58.924Z,2.50
2022-08-28T19:30:26.034Z,1.95
2022-08-28T19:32:52.347Z,1.98
2022-08-28T19:35:18.948Z,2.22
2022-08-28T19:37:45.491Z,2.55
2022-08-28T19:40:12.165Z,2.20
2022-08-28T19:42:38.766Z,2.90
2022-08-28T19:45:09.741Z,3.53
2022-08-28T19:47:36.087Z,2.75
2022-08-28T19:50:02.709Z,2.70
2022-08-28T19:52:28.965Z,3.80
2022-08-28T19:54:55.554Z,5.07
2022-08-28T19:57:21.867Z,6.22
2022-08-28T19:59:48.731Z,3.95
2022-08-28T20:02:16.851Z,2.22
2022-08-28T20:04:43.107Z,2.15
2022-08-28T20:07:09.580Z,1.95
2022-08-28T20:09:35.834Z,2.00
2022-08-28T20:12:03.561Z,1.95
2022-08-28T20:14:29.839Z,1.90
2022-08-28T20:16:57.915Z,1.75
2022-08-28T20:19:24.197Z,2.10
2022-08-28T20:21:51.365Z,2.10
2022-08-28T20:24:20.257Z,1.80
2022-08-28T20:26:46.725Z,1.80
2022-08-28T20:29:13.066Z,2.10
2022-08-28T20:31:40.637Z,2.13
2022-08-28T20:34:07.744Z,2.00
2022-08-28T20:36:33.982Z,2.10
2022-08-28T20:39:00.693Z,2.08
2022-08-28T20:41:26.987Z,2.20
2022-08-28T20:43:53.283Z,2.20
2022-08-28T20:46:19.737Z,2.30
2022-08-28T20:48:46.254Z,2.30
2022-08-28T20:51:12.486Z,2.28
2022-08-28T20:53:39.283Z,2.00
2022-08-28T20:56:07.946Z,2.10
2022-08-28T20:58:34.316Z,3.15
2022-08-28T21:01:00.598Z,2.65
2022-08-28T21:03:27.244Z,2.50
2022-08-28T21:05:55.053Z,2.45
2022-08-28T21:08:21.362Z,2.22
2022-08-28T21:10:47.642Z,2.55
2022-08-28T21:13:13.914Z,2.63
2022-08-28T21:15:40.323Z,2.55
2022-08-28T21:18:08.065Z,2.30
2022-08-28T21:20:36.683Z,2.30
2022-08-28T21:23:04.485Z,2.58
2022-08-28T21:25:30.798Z,2.30
2022-08-28T21:27:57.080Z,2.40
2022-08-28T21:30:23.493Z,2.65
2022-08-28T21:32:54.775Z,2.38
2022-08-28T21:35:21.078Z,2.50
2022-08-28T21:37:48.727Z,2.60
2022-08-28T21:40:15.341Z,2.38
2022-08-28T21:42:41.668Z,2.80
2022-08-28T21:45:11.850Z,2.70
2022-08-28T21:47:38.639Z,2.45
2022-08-28T21:50:05.340Z,3.45
2022-08-28T21:52:31.747Z,2.20
2022-08-28T21:54:59.617Z,2.50
2022-08-28T21:57:26.533Z,2.75
2022-08-28T21:59:52.899Z,2.38
2022-08-28T22:02:19.197Z,2.50
2022-08-28T22:04:45.876Z,2.58
2022-08-28T22:07:13.951Z,2.13
2022-08-28T22:09:40.207Z,2.50
2022-08-28T22:12:06.643Z,2.65
2022-08-28T22:14:32.882Z,2.40
2022-08-28T22:16:59.207Z,2.53
2022-08-28T22:19:25.503Z,2.60
2022-08-28T22:22:10.519Z,2.42
2022-08-28T22:24:37.477Z,2.63
2022-08-28T22:27:04.256Z,2.50
2022-08-28T22:29:36.474Z,2.60
2022-08-28T22:32:04.161Z,2.15
2022-08-28T22:34:30.476Z,2.35
2022-08-28T22:36:56.742Z,2.60
2022-08-28T22:39:23.011Z,2.65
2022-08-28T22:41:49.258Z,2.72
2022-08-28T22:44:15.502Z,3.03
2022-08-28T22:46:41.907Z,2.78
2022-08-28T22:49:08.173Z,3.03
2022-08-28T22:51:34.558Z,2.58
2022-08-28T22:54:00.887Z,2.85
2022-08-28T22:56:27.119Z,3.10
2022-08-28T22:58:53.365Z,2.60
2022-08-28T23:01:20.635Z,2.38
2022-08-28T23:03:47.024Z,2.80
2022-08-28T23:06:13.819Z,2.65
2022-08-28T23:08:40.359Z,2.70
2022-08-28T23:11:06.744Z,2.90
2022-08-28T23:13:33.135Z,2.45
2022-08-28T23:16:00.268Z,2.53
2022-08-28T23:18:26.595Z,3.30
2022-08-28T23:20:55.094Z,2.70
2022-08-28T23:23:22.877Z,2.50
2022-08-28T23:25:50.377Z,2.65
2022-08-28T23:28:17.135Z,2.35
2022-08-28T23:30:44.023Z,2.63
2022-08-28T23:33:19.753Z,2.40
2022-08-28T23:35:50.333Z,2.58
2022-08-28T23:38:16.595Z,2.63
2022-08-28T23:40:43.102Z,2.58
2022-08-28T23:43:09.949Z,2.55
2022-08-28T23:45:38.995Z,2.60
2022-08-28T23:48:05.318Z,3.38
2022-08-28T23:50:31.834Z,3.08
2022-08-28T23:52:58.129Z,2.60
2022-08-28T23:55:27.002Z,2.80
2022-08-28T23:57:54.067Z,2.30
